Time;durP1;ratioP1;P1;durP2;ratioP2;P2;SDS_P1;SDS_P2;PMS_P1;PMS_P2;Temp;Humidity;BMP_temperature;BMP_pressure;BME280_temperature;BME280_humidity;BME280_pressure;Samples;Min_cycle;Max_cycle;Signal;HPM_P1;HPM_P2
2023/10/24 00:01:46;;;;;;;7.60;5.37;;;;;;;;;;10562525;28;20886;-85
2023/10/24 00:06:48;;;;;;;7.05;5.47;;;;;;;;;;10561010;28;20473;-86
2023/10/24 00:11:52;;;;;;;9.40;4.80;;;;;;;;;;10560577;28;20416;-86
2023/10/24 00:16:54;;;;;;;10.55;5.63;;;;;;;;;;10553770;28;20404;-87
2023/10/24 00:21:56;;;;;;;7.43;5.40;;;;;;;;;;10563637;28;20453;-86
2023/10/24 00:27:00;;;;;;;7.90;5.30;;;;;;;;;;10558686;28;20474;-87
2023/10/24 00:32:02;;;;;;;7.25;5.72;;;;;;;;;;10564059;28;20450;-87
2023/10/24 00:37:05;;;;;;;6.65;5.68;;;;;;;;;;10551922;28;21156;-87
2023/10/24 00:42:09;;;;;;;9.97;5.43;;;;;;;;;;10563904;28;20410;-86
2023/10/24 00:47:11;;;;;;;9.75;5.20;;;;;;;;;;10568608;27;20399;-87
2023/10/24 00:52:14;;;;;;;7.83;5.10;;;;;;;;;;10563807;27;20453;-86
2023/10/24 00:57:17;;;;;;;11.13;6.10;;;;;;;;;;10576286;27;20393;-86
2023/10/24 01:02:20;;;;;;;8.97;4.97;;;;;;;;;;10559090;28;20406;-86
2023/10/24 01:07:22;;;;;;;8.40;5.13;;;;;;;;;;10555387;28;20967;-85
2023/10/24 01:12:26;;;;;;;8.02;5.35;;;;;;;;;;10566061;28;20462;-86
2023/10/24 01:17:29;;;;;;;8.10;5.60;;;;;;;;;;10564627;28;20448;-86
2023/10/24 01:22:33;;;;;;;9.07;5.75;;;;;;;;;;10567172;28;20468;-86
2023/10/24 01:27:35;;;;;;;7.43;5.50;;;;;;;;;;10564528;28;20404;-86
2023/10/24 01:32:37;;;;;;;6.63;4.65;;;;;;;;;;10561475;28;20481;-86
2023/10/24 01:37:41;;;;;;;5.30;3.60;;;;;;;;;;10563370;28;20408;-86
2023/10/24 01:42:43;;;;;;;4.57;3.20;;;;;;;;;;10565161;28;20442;-86
2023/10/24 01:47:46;;;;;;;4.00;2.78;;;;;;;;;;10566096;28;20465;-86
2023/10/24 01:52:49;;;;;;;3.97;2.20;;;;;;;;;;10566908;27;20482;-86
2023/10/24 01:57:52;;;;;;;2.70;2.07;;;;;;;;;;10576868;28;20444;-85
2023/10/24 02:02:54;;;;;;;5.00;2.50;;;;;;;;;;10565882;27;20402;-86
2023/10/24 02:07:58;;;;;;;4.68;2.60;;;;;;;;;;10562480;28;20407;-86
2023/10/24 02:13:00;;;;;;;5.03;2.83;;;;;;;;;;10563546;28;20471;-85
2023/10/24 02:18:03;;;;;;;4.67;3.20;;;;;;;;;;10564324;28;20473;-86
2023/10/24 02:23:07;;;;;;;5.77;3.53;;;;;;;;;;10563995;28;20445;-86
2023/10/24 02:28:09;;;;;;;6.07;3.67;;;;;;;;;;10564293;28;20420;-86
2023/10/24 02:33:11;;;;;;;6.03;3.57;;;;;;;;;;10564728;27;20471;-85
2023/10/24 02:38:16;;;;;;;4.78;3.50;;;;;;;;;;10563966;28;20429;-86
2023/10/24 02:43:19;;;;;;;4.50;3.70;;;;;;;;;;10561782;28;20475;-86
2023/10/24 02:48:21;;;;;;;4.88;3.50;;;;;;;;;;10562666;28;20432;-86
2023/10/24 02:53:25;;;;;;;4.82;3.10;;;;;;;;;;10559780;27;20471;-85
2023/10/24 02:58:27;;;;;;;4.80;3.22;;;;;;;;;;10576542;28;20433;-86
2023/10/24 03:03:29;;;;;;;4.68;2.88;;;;;;;;;;10562534;28;20408;-86
2023/10/24 03:08:33;;;;;;;5.60;2.67;;;;;;;;;;10564372;27;20400;-85
2023/10/24 03:13:36;;;;;;;3.77;2.73;;;;;;;;;;10562192;28;20464;-86
2023/10/24 03:18:38;;;;;;;6.93;2.90;;;;;;;;;;10560713;28;20406;-86
2023/10/24 03:23:44;;;;;;;6.28;2.60;;;;;;;;;;10560638;28;20472;-86
2023/10/24 03:28:46;;;;;;;5.07;2.80;;;;;;;;;;10562654;27;20402;-86
2023/10/24 03:33:48;;;;;;;3.97;2.17;;;;;;;;;;10562031;27;20450;-86
2023/10/24 03:38:52;;;;;;;4.97;2.03;;;;;;;;;;10553500;28;20455;-86
2023/10/24 03:43:54;;;;;;;3.45;1.70;;;;;;;;;;10562999;28;20399;-86
2023/10/24 03:48:57;;;;;;;3.08;1.70;;;;;;;;;;10558644;28;20408;-86
2023/10/24 03:54:00;;;;;;;3.83;1.73;;;;;;;;;;10559344;27;20412;-84
2023/10/24 03:59:03;;;;;;;3.20;1.60;;;;;;;;;;10573322;27;21052;-86
2023/10/24 04:04:06;;;;;;;2.53;1.50;;;;;;;;;;10554895;28;20402;-86
2023/10/24 04:09:10;;;;;;;2.55;1.40;;;;;;;;;;10561062;28;20465;-87
2023/10/24 04:14:13;;;;;;;2.90;1.38;;;;;;;;;;10559529;28;20503;-86
2023/10/24 04:19:15;;;;;;;3.53;1.27;;;;;;;;;;10559400;28;20943;-87
2023/10/24 04:24:19;;;;;;;1.87;1.37;;;;;;;;;;10562391;28;20527;-87
2023/10/24 04:29:21;;;;;;;2.73;1.40;;;;;;;;;;10560318;28;20468;-88
2023/10/24 04:34:24;;;;;;;3.07;1.80;;;;;;;;;;10557052;28;20454;-87
2023/10/24 04:39:28;;;;;;;2.20;1.73;;;;;;;;;;10559872;28;20401;-87
2023/10/24 04:44:32;;;;;;;6.07;2.43;;;;;;;;;;10560642;28;20403;-86
2023/10/24 04:49:37;;;;;;;3.47;2.03;;;;;;;;;;10560543;28;20407;-87
2023/10/24 04:54:41;;;;;;;3.22;2.10;;;;;;;;;;10558254;28;20452;-89
2023/10/24 04:59:43;;;;;;;4.28;2.47;;;;;;;;;;10559796;28;20400;-86
2023/10/24 05:04:46;;;;;;;3.40;2.20;;;;;;;;;;10554422;28;20412;-86
2023/10/24 05:09:50;;;;;;;5.15;2.40;;;;;;;;;;10555481;28;20502;-86
2023/10/24 05:14:52;;;;;;;2.97;2.20;;;;;;;;;;10558754;28;20844;-86
2023/10/24 05:19:54;;;;;;;3.17;2.25;;;;;;;;;;10550162;28;20399;-86
2023/10/24 05:24:58;;;;;;;3.53;2.20;;;;;;;;;;10562000;28;20398;-85
2023/10/24 05:30:00;;;;;;;4.68;2.25;;;;;;;;;;10562685;28;20882;-86
2023/10/24 05:35:03;;;;;;;4.80;2.28;;;;;;;;;;10558478;27;20880;-86
2023/10/24 05:40:08;;;;;;;3.97;2.05;;;;;;;;;;10575103;27;20406;-86
2023/10/24 05:45:11;;;;;;;2.97;1.93;;;;;;;;;;10565311;27;20408;-87
2023/10/24 05:50:13;;;;;;;5.45;2.30;;;;;;;;;;10567007;27;20416;-88
2023/10/24 05:55:18;;;;;;;6.10;2.37;;;;;;;;;;10561602;27;20400;-86
2023/10/24 06:00:20;;;;;;;4.50;2.38;;;;;;;;;;10570091;27;20406;-87
2023/10/24 06:05:23;;;;;;;4.70;2.95;;;;;;;;;;10553741;28;20404;-87
2023/10/24 06:10:27;;;;;;;5.80;2.50;;;;;;;;;;10558862;28;20481;-87
2023/10/24 06:15:29;;;;;;;4.82;2.28;;;;;;;;;;10550827;28;20749;-87
2023/10/24 06:20:31;;;;;;;4.32;2.30;;;;;;;;;;10557951;28;20441;-87
2023/10/24 06:25:38;;;;;;;3.28;2.35;;;;;;;;;;10559593;28;20406;-87
2023/10/24 06:30:41;;;;;;;4.68;2.40;;;;;;;;;;10562290;28;20962;-87
2023/10/24 06:35:43;;;;;;;4.15;2.20;;;;;;;;;;10563170;28;20402;-86
2023/10/24 06:40:47;;;;;;;4.78;2.63;;;;;;;;;;10562460;28;20457;-87
2023/10/24 06:45:50;;;;;;;4.57;2.00;;;;;;;;;;10565054;27;20485;-86
2023/10/24 06:50:52;;;;;;;4.68;2.30;;;;;;;;;;10558559;27;20493;-87
2023/10/24 06:56:01;;;;;;;3.47;2.40;;;;;;;;;;10554921;28;20401;-87
2023/10/24 07:01:03;;;;;;;5.47;2.50;;;;;;;;;;10573504;22;20408;-86
2023/10/24 07:06:06;;;;;;;5.60;2.47;;;;;;;;;;10558682;27;20419;-87
2023/10/24 07:11:10;;;;;;;7.57;2.83;;;;;;;;;;10544815;28;20452;-85
2023/10/24 07:16:14;;;;;;;5.20;3.00;;;;;;;;;;10561074;27;20454;-87
2023/10/24 07:21:17;;;;;;;3.42;2.60;;;;;;;;;;10551929;27;20792;-87
2023/10/24 07:26:20;;;;;;;5.28;2.90;;;;;;;;;;10563030;27;20505;-87
2023/10/24 07:31:25;;;;;;;6.03;2.72;;;;;;;;;;10564449;27;20473;-85
2023/10/24 07:36:30;;;;;;;6.17;2.67;;;;;;;;;;10555740;27;20892;-86
2023/10/24 07:41:34;;;;;;;4.20;2.50;;;;;;;;;;10557148;27;20430;-84
2023/10/24 07:46:37;;;;;;;5.07;2.92;;;;;;;;;;10563865;28;20398;-86
2023/10/24 07:51:39;;;;;;;5.37;2.53;;;;;;;;;;10558116;28;20452;-87
2023/10/24 07:56:43;;;;;;;5.00;2.35;;;;;;;;;;10558114;27;20399;-86
2023/10/24 08:01:45;;;;;;;5.25;2.63;;;;;;;;;;10548331;27;20689;-86
2023/10/24 08:06:48;;;;;;;3.97;2.15;;;;;;;;;;10560469;27;20899;-87
2023/10/24 08:11:51;;;;;;;5.45;2.67;;;;;;;;;;10550868;27;20444;-87
2023/10/24 08:16:54;;;;;;;2.93;1.93;;;;;;;;;;10561818;27;20450;-87
2023/10/24 08:21:56;;;;;;;4.45;1.92;;;;;;;;;;10567748;27;20405;-87
2023/10/24 08:27:00;;;;;;;4.88;2.22;;;;;;;;;;10557272;28;20951;-86
2023/10/24 08:32:02;;;;;;;4.60;2.15;;;;;;;;;;10563363;27;20500;-86
2023/10/24 08:37:05;;;;;;;3.65;2.00;;;;;;;;;;10567172;27;20445;-87
2023/10/24 08:42:11;;;;;;;2.47;1.77;;;;;;;;;;10566644;28;20986;-87
2023/10/24 08:47:14;;;;;;;3.72;1.90;;;;;;;;;;10555212;28;20404;-87
2023/10/24 08:52:16;;;;;;;3.28;2.10;;;;;;;;;;10548723;28;20489;-87
2023/10/24 08:57:27;;;;;;;5.40;2.53;;;;;;;;;;10560571;28;20452;-86
2023/10/24 09:02:29;;;;;;;3.10;2.40;;;;;;;;;;10553026;28;20963;-86
2023/10/24 09:07:31;;;;;;;10.93;3.95;;;;;;;;;;10568715;27;20403;-87
2023/10/24 09:12:37;;;;;;;3.50;1.70;;;;;;;;;;10560132;27;20423;-87
2023/10/24 09:17:40;;;;;;;2.75;1.70;;;;;;;;;;10558339;28;20812;-86
2023/10/24 09:22:42;;;;;;;2.70;1.93;;;;;;;;;;10566707;27;21022;-87
2023/10/24 09:27:46;;;;;;;3.53;1.93;;;;;;;;;;10571936;27;20476;-86
2023/10/24 09:32:48;;;;;;;4.20;2.30;;;;;;;;;;10581541;27;20416;-87
2023/10/24 09:37:51;;;;;;;2.72;1.90;;;;;;;;;;10573659;27;20507;-87
2023/10/24 09:42:56;;;;;;;3.13;2.05;;;;;;;;;;10565953;27;20941;-87
2023/10/24 09:48:00;;;;;;;4.43;2.00;;;;;;;;;;10561801;27;20384;-88
2023/10/24 09:53:02;;;;;;;5.83;2.47;;;;;;;;;;10564312;27;20515;-87
2023/10/24 09:58:08;;;;;;;3.65;2.00;;;;;;;;;;10572967;27;20877;-87
2023/10/24 10:03:11;;;;;;;4.32;2.17;;;;;;;;;;10567816;27;20440;-87
2023/10/24 10:08:16;;;;;;;4.00;2.28;;;;;;;;;;10576480;27;20450;-88
2023/10/24 10:13:27;;;;;;;3.93;3.10;;;;;;;;;;10571613;27;20426;-87
2023/10/24 10:18:46;;;;;;;5.15;2.83;;;;;;;;;;10564996;27;20466;-86
2023/10/24 10:24:16;;;;;;;6.93;2.38;;;;;;;;;;10570657;27;20422;-86
2023/10/24 10:29:29;;;;;;;3.70;2.20;;;;;;;;;;10567317;27;20469;-87
2023/10/24 10:34:37;;;;;;;3.70;2.20;;;;;;;;;;10569071;27;20416;-87
2023/10/24 10:39:39;;;;;;;5.43;2.17;;;;;;;;;;10556648;27;20425;-87
2023/10/24 10:44:44;;;;;;;3.43;2.20;;;;;;;;;;10557593;27;20471;-87
2023/10/24 10:49:53;;;;;;;4.13;2.10;;;;;;;;;;10556710;28;20444;-87
2023/10/24 10:55:12;;;;;;;4.50;2.40;;;;;;;;;;10563359;27;20913;-87
2023/10/24 11:00:19;;;;;;;3.87;2.00;;;;;;;;;;10560777;27;20444;-87
2023/10/24 11:05:50;;;;;;;2.78;1.80;;;;;;;;;;10556764;27;20407;-87
2023/10/24 11:10:56;;;;;;;5.72;2.38;;;;;;;;;;10560352;27;20833;-87
2023/10/24 11:16:01;;;;;;;5.53;2.10;;;;;;;;;;10556607;27;20418;-87
2023/10/24 11:21:05;;;;;;;5.45;3.35;;;;;;;;;;10557905;27;20402;-87
2023/10/24 11:26:08;;;;;;;4.30;2.60;;;;;;;;;;10570062;27;20404;-87
2023/10/24 11:31:22;;;;;;;3.45;2.28;;;;;;;;;;10561506;27;20860;-88
2023/10/24 11:36:27;;;;;;;3.22;2.10;;;;;;;;;;10559440;28;20951;-87
2023/10/24 11:41:29;;;;;;;4.10;1.90;;;;;;;;;;10555941;28;20414;-87
2023/10/24 11:46:33;;;;;;;3.83;2.13;;;;;;;;;;10552887;27;20486;-87
2023/10/24 11:51:35;;;;;;;3.13;2.28;;;;;;;;;;10561376;27;20411;-87
2023/10/24 11:56:39;;;;;;;3.33;1.80;;;;;;;;;;10553053;27;20476;-87
2023/10/24 12:01:43;;;;;;;3.65;2.35;;;;;;;;;;10562997;27;20468;-87
2023/10/24 12:06:46;;;;;;;4.70;2.97;;;;;;;;;;10554496;28;20760;-87
2023/10/24 12:11:48;;;;;;;6.70;2.95;;;;;;;;;;10555116;28;20428;-90
2023/10/24 12:16:52;;;;;;;4.32;2.53;;;;;;;;;;10555377;28;20525;-88
2023/10/24 12:21:55;;;;;;;3.83;2.35;;;;;;;;;;10559594;28;20879;-88
2023/10/24 12:26:57;;;;;;;4.07;2.63;;;;;;;;;;10558539;28;20941;-88
2023/10/24 12:32:01;;;;;;;3.53;2.28;;;;;;;;;;10555649;28;20418;-87
2023/10/24 12:37:04;;;;;;;5.13;2.70;;;;;;;;;;10551932;28;20468;-88
2023/10/24 12:42:06;;;;;;;5.00;3.30;;;;;;;;;;10560983;28;20399;-88
2023/10/24 12:47:11;;;;;;;4.72;2.65;;;;;;;;;;10556065;28;20407;-88
2023/10/24 12:52:13;;;;;;;5.28;3.00;;;;;;;;;;10552415;28;20808;-88
2023/10/24 12:57:16;;;;;;;4.57;2.93;;;;;;;;;;10553056;28;20497;-86
2023/10/24 13:13:58;;;;;;;4.20;2.53;;;;;;;;;;10430842;28;1979177;-86
2023/10/24 13:19:00;;;;;;;7.18;3.50;;;;;;;;;;10524953;28;20818;-86
2023/10/24 13:24:03;;;;;;;3.00;2.70;;;;;;;;;;10514258;28;20408;-86
2023/10/24 13:29:07;;;;;;;4.63;2.80;;;;;;;;;;10538387;28;20409;-87
2023/10/24 13:34:09;;;;;;;3.40;2.45;;;;;;;;;;10523751;28;20495;-86
2023/10/24 13:39:14;;;;;;;3.67;2.70;;;;;;;;;;10528924;28;20410;-87
2023/10/24 13:44:17;;;;;;;3.10;2.43;;;;;;;;;;10526817;28;20789;-87
2023/10/24 13:49:20;;;;;;;3.60;2.50;;;;;;;;;;10522228;28;20400;-87
2023/10/24 13:54:22;;;;;;;5.38;2.42;;;;;;;;;;10529265;28;20424;-87
2023/10/24 13:59:26;;;;;;;4.20;2.20;;;;;;;;;;10529860;28;20903;-87
2023/10/24 14:04:28;;;;;;;3.60;2.30;;;;;;;;;;10540337;28;20919;-87
2023/10/24 14:09:30;;;;;;;4.30;2.38;;;;;;;;;;10537797;28;20532;-84
2023/10/24 14:14:34;;;;;;;4.93;2.80;;;;;;;;;;10531749;28;20416;-87
2023/10/24 14:19:36;;;;;;;4.80;2.83;;;;;;;;;;10532843;28;20416;-88
2023/10/24 14:24:39;;;;;;;6.57;3.60;;;;;;;;;;10522677;28;20407;-87
2023/10/24 14:29:43;;;;;;;5.97;4.03;;;;;;;;;;10524559;28;20464;-86
2023/10/24 14:34:45;;;;;;;5.57;4.13;;;;;;;;;;10516655;28;20471;-87
2023/10/24 14:39:47;;;;;;;6.03;3.70;;;;;;;;;;10524346;28;20404;-87
2023/10/24 14:44:51;;;;;;;6.15;3.40;;;;;;;;;;10518241;28;20395;-87
2023/10/24 14:49:54;;;;;;;4.22;3.70;;;;;;;;;;10524138;28;20470;-88
2023/10/24 14:54:56;;;;;;;4.20;3.60;;;;;;;;;;10520510;28;20462;-86
2023/10/24 15:00:00;;;;;;;5.32;4.20;;;;;;;;;;10517739;28;20400;-86
2023/10/24 15:05:03;;;;;;;6.40;3.92;;;;;;;;;;10515339;28;20822;-86
2023/10/24 15:10:06;;;;;;;8.15;4.78;;;;;;;;;;10514131;28;20402;-87
2023/10/24 15:15:11;;;;;;;5.20;4.43;;;;;;;;;;10516372;28;20426;-88
2023/10/24 15:20:13;;;;;;;6.57;4.40;;;;;;;;;;10521539;28;20405;-86
2023/10/24 15:25:15;;;;;;;6.90;4.88;;;;;;;;;;10522602;28;20404;-87
2023/10/24 15:30:21;;;;;;;10.33;5.47;;;;;;;;;;10520927;28;20408;-87
2023/10/24 15:35:24;;;;;;;8.33;5.30;;;;;;;;;;10519970;28;20514;-86
2023/10/24 15:40:27;;;;;;;7.25;5.30;;;;;;;;;;10541831;28;20403;-86
2023/10/24 15:45:30;;;;;;;9.13;5.55;;;;;;;;;;10534606;28;20438;-86
2023/10/24 15:50:33;;;;;;;8.43;5.85;;;;;;;;;;10551650;28;20448;-86
2023/10/24 15:55:35;;;;;;;8.17;5.07;;;;;;;;;;10524028;28;20487;-87
2023/10/24 16:00:39;;;;;;;9.15;6.00;;;;;;;;;;10521967;28;20451;-86
2023/10/24 16:05:41;;;;;;;8.88;5.55;;;;;;;;;;10508068;28;21364;-87
2023/10/24 16:10:44;;;;;;;24.67;11.02;;;;;;;;;;10518186;28;20440;-87
2023/10/24 16:15:52;;;;;;;13.87;7.87;;;;;;;;;;10520540;28;20455;-86
2023/10/24 16:20:58;;;;;;;9.68;6.25;;;;;;;;;;10517274;28;20412;-87
2023/10/24 16:26:01;;;;;;;14.93;6.95;;;;;;;;;;10515770;28;20400;-85
2023/10/24 16:31:05;;;;;;;10.13;6.22;;;;;;;;;;10522407;28;20462;-86
2023/10/24 16:36:08;;;;;;;21.52;13.98;;;;;;;;;;10511759;28;20458;-87
2023/10/24 16:41:10;;;;;;;29.00;16.92;;;;;;;;;;10523649;28;20903;-87
2023/10/24 16:46:14;;;;;;;15.77;9.48;;;;;;;;;;10524493;28;20827;-86
2023/10/24 16:51:16;;;;;;;11.50;9.05;;;;;;;;;;10510735;28;20444;-87
2023/10/24 16:56:19;;;;;;;10.37;7.20;;;;;;;;;;10513075;28;20457;-87
2023/10/24 17:01:22;;;;;;;8.30;7.25;;;;;;;;;;10515014;28;20438;-87
2023/10/24 17:06:25;;;;;;;14.73;11.48;;;;;;;;;;10518933;28;20519;-86
2023/10/24 17:11:28;;;;;;;10.55;7.30;;;;;;;;;;10529437;28;20461;-87
2023/10/24 17:16:32;;;;;;;7.95;6.05;;;;;;;;;;10529864;28;20419;-89
2023/10/24 17:21:34;;;;;;;9.57;7.67;;;;;;;;;;10555062;28;20397;-91
2023/10/24 17:26:36;;;;;;;11.45;8.60;;;;;;;;;;10538500;28;20408;-91
2023/10/24 17:31:40;;;;;;;13.40;9.88;;;;;;;;;;10536014;28;20430;-93
2023/10/24 17:36:43;;;;;;;10.30;7.20;;;;;;;;;;10552712;28;20446;-93
2023/10/24 17:41:45;;;;;;;11.10;6.70;;;;;;;;;;10570554;28;20400;-93
2023/10/24 17:46:49;;;;;;;8.75;6.63;;;;;;;;;;10551939;28;20446;-94
2023/10/24 17:51:51;;;;;;;9.57;7.22;;;;;;;;;;10531961;28;20401;-94
2023/10/24 17:56:55;;;;;;;11.23;7.68;;;;;;;;;;10537171;28;20985;-93
2023/10/24 18:01:58;;;;;;;12.93;7.88;;;;;;;;;;10552182;28;20406;-92
2023/10/24 18:07:01;;;;;;;12.90;8.77;;;;;;;;;;10543891;28;20423;-90
2023/10/24 18:12:03;;;;;;;13.60;9.50;;;;;;;;;;10536500;28;20405;-91
2023/10/24 18:17:07;;;;;;;12.80;9.13;;;;;;;;;;10544904;28;20826;-91
2023/10/24 18:22:09;;;;;;;15.33;10.67;;;;;;;;;;10537004;28;20466;-91
2023/10/24 18:27:12;;;;;;;15.70;11.13;;;;;;;;;;10536785;28;20420;-92
2023/10/24 18:32:16;;;;;;;18.50;12.38;;;;;;;;;;10535001;28;20438;-92
2023/10/24 18:37:18;;;;;;;21.15;12.98;;;;;;;;;;10539141;28;20424;-91
2023/10/24 18:42:21;;;;;;;19.10;12.60;;;;;;;;;;10549493;28;20419;-90
2023/10/24 18:47:25;;;;;;;22.10;14.23;;;;;;;;;;10510080;28;20434;-89
2023/10/24 18:52:28;;;;;;;21.48;14.15;;;;;;;;;;10530957;28;20469;-91
2023/10/24 18:57:31;;;;;;;22.85;14.52;;;;;;;;;;10525604;28;20418;-91
2023/10/24 19:02:36;;;;;;;26.70;15.67;;;;;;;;;;10533520;28;20517;-89
2023/10/24 19:07:39;;;;;;;26.65;15.80;;;;;;;;;;10521430;28;20506;-90
2023/10/24 19:12:41;;;;;;;27.47;15.63;;;;;;;;;;10518040;28;20420;-90
2023/10/24 19:17:46;;;;;;;24.33;14.25;;;;;;;;;;10522978;28;20505;-91
2023/10/24 19:22:49;;;;;;;27.27;14.97;;;;;;;;;;10529952;28;20450;-92
2023/10/24 19:27:52;;;;;;;24.90;14.13;;;;;;;;;;10557831;28;20408;-91
2023/10/24 19:32:56;;;;;;;24.52;14.63;;;;;;;;;;10523642;28;20462;-92
2023/10/24 19:38:03;;;;;;;22.38;13.10;;;;;;;;;;10522204;28;20502;-92
2023/10/24 19:43:06;;;;;;;24.20;13.48;;;;;;;;;;10528229;28;20438;-92
2023/10/24 19:48:15;;;;;;;23.47;13.43;;;;;;;;;;10530489;28;20415;-92
2023/10/24 19:53:18;;;;;;;26.97;14.03;;;;;;;;;;10531033;28;20420;-90
2023/10/24 19:58:22;;;;;;;24.13;13.20;;;;;;;;;;10526779;28;20897;-90
2023/10/24 20:03:26;;;;;;;24.98;13.50;;;;;;;;;;10519150;28;20404;-93
2023/10/24 20:08:29;;;;;;;26.42;13.57;;;;;;;;;;10526902;28;20416;-92
2023/10/24 20:13:32;;;;;;;26.45;14.43;;;;;;;;;;10520220;28;20416;-93
2023/10/24 20:18:37;;;;;;;27.95;13.93;;;;;;;;;;10532352;28;20489;-93
2023/10/24 20:23:39;;;;;;;25.93;13.70;;;;;;;;;;10528295;28;20465;-93
2023/10/24 20:28:42;;;;;;;26.57;13.57;;;;;;;;;;10545191;28;20402;-92
2023/10/24 20:33:46;;;;;;;25.77;13.67;;;;;;;;;;10514732;28;20963;-91
2023/10/24 20:38:48;;;;;;;22.60;13.43;;;;;;;;;;10525786;28;20473;-91
2023/10/24 20:43:50;;;;;;;23.10;13.17;;;;;;;;;;10524775;28;20394;-90
2023/10/24 20:48:56;;;;;;;24.27;13.43;;;;;;;;;;10520185;28;21191;-90
2023/10/24 20:53:59;;;;;;;26.25;14.60;;;;;;;;;;10522349;28;20412;-91
2023/10/24 20:59:01;;;;;;;23.73;13.77;;;;;;;;;;10527807;28;20416;-89
2023/10/24 21:04:05;;;;;;;24.45;14.40;;;;;;;;;;10538190;28;20412;-91
2023/10/24 21:09:08;;;;;;;25.73;13.63;;;;;;;;;;10536750;28;20466;-91
2023/10/24 21:14:10;;;;;;;25.10;13.07;;;;;;;;;;10542819;28;20465;-92
2023/10/24 21:19:14;;;;;;;23.50;13.32;;;;;;;;;;10524267;28;20459;-91
2023/10/24 21:24:16;;;;;;;24.07;13.83;;;;;;;;;;10525292;28;20435;-93
2023/10/24 21:29:19;;;;;;;24.70;13.43;;;;;;;;;;10546911;28;20396;-91
2023/10/24 21:34:23;;;;;;;22.00;12.00;;;;;;;;;;10541750;28;20408;-92
2023/10/24 21:39:25;;;;;;;26.00;12.55;;;;;;;;;;10531327;28;20410;-91
2023/10/24 21:44:28;;;;;;;26.88;11.90;;;;;;;;;;10534817;28;20410;-91
2023/10/24 21:49:32;;;;;;;25.38;12.57;;;;;;;;;;10546255;28;20408;-91
2023/10/24 21:54:34;;;;;;;25.95;12.35;;;;;;;;;;10543350;28;20452;-91
2023/10/24 21:59:36;;;;;;;22.95;11.43;;;;;;;;;;10540901;28;20442;-92
2023/10/24 22:04:40;;;;;;;23.33;11.80;;;;;;;;;;10536360;28;20459;-92
2023/10/24 22:09:42;;;;;;;22.97;11.03;;;;;;;;;;10540333;28;20469;-91
2023/10/24 22:14:45;;;;;;;21.90;10.68;;;;;;;;;;10530218;28;20939;-91
2023/10/24 22:19:48;;;;;;;21.75;10.65;;;;;;;;;;10527997;28;20434;-91
2023/10/24 22:24:51;;;;;;;19.55;10.27;;;;;;;;;;10516631;28;20420;-91
2023/10/24 22:29:54;;;;;;;21.10;10.23;;;;;;;;;;10548818;28;20548;-90
2023/10/24 22:34:57;;;;;;;19.30;9.95;;;;;;;;;;10529236;28;20409;-91
2023/10/24 22:40:00;;;;;;;19.97;9.80;;;;;;;;;;10523942;28;20416;-91
2023/10/24 22:45:02;;;;;;;18.55;9.82;;;;;;;;;;10530869;28;20398;-92
2023/10/24 22:50:07;;;;;;;17.60;9.43;;;;;;;;;;10539069;28;20477;-92
2023/10/24 22:55:09;;;;;;;17.00;8.85;;;;;;;;;;10531394;28;20439;-91
2023/10/24 23:00:13;;;;;;;15.88;8.75;;;;;;;;;;10528675;28;20905;-91
2023/10/24 23:05:17;;;;;;;18.38;9.13;;;;;;;;;;10531448;28;21155;-91
2023/10/24 23:10:20;;;;;;;17.57;9.60;;;;;;;;;;10529798;28;20404;-91
2023/10/24 23:15:22;;;;;;;19.23;10.10;;;;;;;;;;10521696;28;20486;-91
2023/10/24 23:20:26;;;;;;;18.67;9.95;;;;;;;;;;10525723;28;20401;-91
2023/10/24 23:25:28;;;;;;;19.27;11.18;;;;;;;;;;10526020;28;20472;-91
2023/10/24 23:30:30;;;;;;;18.75;10.63;;;;;;;;;;10539045;28;20464;-91
2023/10/24 23:35:34;;;;;;;24.13;10.95;;;;;;;;;;10528131;28;20410;-91
2023/10/24 23:40:36;;;;;;;20.52;11.20;;;;;;;;;;10527447;28;20951;-92
2023/10/24 23:45:39;;;;;;;20.98;11.43;;;;;;;;;;10536104;28;20435;-91
2023/10/24 23:50:43;;;;;;;20.40;10.93;;;;;;;;;;10525757;28;20408;-90
2023/10/24 23:55:45;;;;;;;20.70;11.05;;;;;;;;;;10521725;28;20484;-91
